createdAt,value
2023-08-14T00:00:05.630Z,1014.53
2023-08-14T00:01:06.478Z,1014.55
2023-08-14T00:02:05.614Z,1014.56
2023-08-14T00:03:05.586Z,1014.56
2023-08-14T00:04:05.563Z,1014.57
2023-08-14T00:05:05.550Z,1014.54
2023-08-14T00:06:05.646Z,1014.60
2023-08-14T00:07:05.457Z,1014.60
2023-08-14T00:08:05.481Z,1014.60
2023-08-14T00:09:05.436Z,1014.60
2023-08-14T00:10:05.439Z,1014.59
2023-08-14T00:11:05.411Z,1014.60
2023-08-14T00:12:05.421Z,1014.64
2023-08-14T00:13:05.366Z,1014.64
2023-08-14T00:14:05.872Z,1014.67
2023-08-14T00:15:05.374Z,1014.60
2023-08-14T00:16:05.447Z,1014.55
2023-08-14T00:17:05.821Z,1014.59
2023-08-14T00:18:05.872Z,1014.55
2023-08-14T00:19:05.353Z,1014.60
2023-08-14T00:20:05.348Z,1014.57
2023-08-14T00:21:05.296Z,1014.61
2023-08-14T00:22:05.285Z,1014.60
2023-08-14T00:23:05.282Z,1014.57
2023-08-14T00:24:06.200Z,1014.55
2023-08-14T00:25:05.210Z,1014.51
2023-08-14T00:26:06.007Z,1014.50
2023-08-14T00:27:05.230Z,1014.56
2023-08-14T00:28:05.174Z,1014.56
2023-08-14T00:29:05.274Z,1014.55
2023-08-14T00:30:05.207Z,1014.56
2023-08-14T00:31:05.291Z,1014.53
2023-08-14T00:32:05.228Z,1014.56
2023-08-14T00:33:05.191Z,1014.52
2023-08-14T00:34:05.120Z,1014.52
2023-08-14T00:35:05.158Z,1014.50
2023-08-14T00:36:05.122Z,1014.49
2023-08-14T00:37:05.107Z,1014.45
2023-08-14T00:38:05.096Z,1014.44
2023-08-14T00:39:05.063Z,1014.40
2023-08-14T00:40:05.048Z,1014.37
2023-08-14T00:41:05.088Z,1014.38
2023-08-14T00:42:05.039Z,1014.35
2023-08-14T00:43:04.987Z,1014.36
2023-08-14T00:44:05.834Z,1014.34
2023-08-14T00:45:05.746Z,1014.34
2023-08-14T00:46:05.261Z,1014.30
2023-08-14T00:47:05.813Z,1014.32
2023-08-14T00:48:05.775Z,1014.29
2023-08-14T00:49:05.845Z,1014.29
2023-08-14T00:50:04.909Z,1014.28
2023-08-14T00:51:05.657Z,1014.25
2023-08-14T00:52:05.870Z,1014.27
2023-08-14T00:53:05.722Z,1014.32
2023-08-14T00:54:05.623Z,1014.33
2023-08-14T00:55:04.815Z,1014.36
2023-08-14T00:56:04.840Z,1014.33
2023-08-14T00:57:04.774Z,1014.34
2023-08-14T00:58:05.492Z,1014.33
2023-08-14T00:59:04.777Z,1014.33
2023-08-14T01:00:05.583Z,1014.27
2023-08-14T01:01:05.770Z,1014.32
2023-08-14T01:02:04.776Z,1014.30
2023-08-14T01:03:04.740Z,1014.28
2023-08-14T01:04:05.430Z,1014.30
2023-08-14T01:05:04.706Z,1014.26
2023-08-14T01:06:05.497Z,1014.28
2023-08-14T01:07:05.395Z,1014.26
2023-08-14T01:08:05.567Z,1014.27
2023-08-14T01:09:05.492Z,1014.29
2023-08-14T01:10:05.364Z,1014.27
2023-08-14T01:11:04.609Z,1014.29
2023-08-14T01:12:04.562Z,1014.34
2023-08-14T01:13:04.580Z,1014.32
2023-08-14T01:14:04.597Z,1014.33
2023-08-14T01:15:04.576Z,1014.27
2023-08-14T01:16:04.599Z,1014.29
2023-08-14T01:17:04.514Z,1014.31
2023-08-14T01:18:04.641Z,1014.29
2023-08-14T01:19:04.536Z,1014.30
2023-08-14T01:20:04.484Z,1014.30
2023-08-14T01:21:04.535Z,1014.31
2023-08-14T01:22:04.673Z,1014.32
2023-08-14T01:23:04.449Z,1014.27
2023-08-14T01:24:04.424Z,1014.36
2023-08-14T01:25:04.533Z,1014.37
2023-08-14T01:26:04.535Z,1014.39
2023-08-14T01:27:04.447Z,1014.38
2023-08-14T01:28:05.179Z,1014.44
2023-08-14T01:29:04.731Z,1014.50
2023-08-14T01:30:04.307Z,1014.48
2023-08-14T01:31:05.197Z,1014.51
2023-08-14T01:32:05.043Z,1014.48
2023-08-14T01:33:04.318Z,1014.49
2023-08-14T01:34:05.118Z,1014.50
2023-08-14T01:35:04.274Z,1014.50
2023-08-14T01:36:05.198Z,1014.55
2023-08-14T01:37:05.101Z,1014.57
2023-08-14T01:38:05.002Z,1014.57
2023-08-14T01:39:05.140Z,1014.64
2023-08-14T01:40:04.223Z,1014.63
2023-08-14T01:41:04.951Z,1014.63
2023-08-14T01:42:05.112Z,1014.69
2023-08-14T01:43:04.126Z,1014.68
2023-08-14T01:44:04.989Z,1014.69
2023-08-14T01:45:04.942Z,1014.71
2023-08-14T01:46:05.032Z,1014.74
2023-08-14T01:47:04.885Z,1014.71
2023-08-14T01:48:05.121Z,1014.68
2023-08-14T01:49:04.143Z,1014.69
2023-08-14T01:50:04.097Z,1014.73
2023-08-14T01:51:05.043Z,1014.69
2023-08-14T01:52:04.064Z,1014.67
2023-08-14T01:53:03.997Z,1014.59
2023-08-14T01:54:04.040Z,1014.60
2023-08-14T01:55:04.889Z,1014.64
2023-08-14T01:56:04.789Z,1014.65
2023-08-14T01:57:04.695Z,1014.62
2023-08-14T01:58:03.940Z,1014.65
2023-08-14T01:59:03.930Z,1014.64
2023-08-14T02:00:04.667Z,1014.61
2023-08-14T02:01:04.827Z,1014.62
2023-08-14T02:02:04.757Z,1014.63
2023-08-14T02:03:03.994Z,1014.56
2023-08-14T02:04:03.860Z,1014.57
2023-08-14T02:05:04.721Z,1014.55
2023-08-14T02:06:04.598Z,1014.52
2023-08-14T02:07:03.918Z,1014.56
2023-08-14T02:08:03.838Z,1014.52
2023-08-14T02:09:04.574Z,1014.57
2023-08-14T02:10:04.727Z,1014.63
2023-08-14T02:11:04.650Z,1014.62
2023-08-14T02:12:04.574Z,1014.62
2023-08-14T02:13:03.710Z,1014.66
2023-08-14T02:14:03.712Z,1014.60
2023-08-14T02:15:04.336Z,1014.59
2023-08-14T02:16:04.840Z,1014.51
2023-08-14T02:17:04.572Z,1014.47
2023-08-14T02:18:04.518Z,1014.55
2023-08-14T02:19:03.662Z,1014.52
2023-08-14T02:20:04.534Z,1014.59
2023-08-14T02:21:04.461Z,1014.62
2023-08-14T02:22:03.759Z,1014.65
2023-08-14T02:23:03.710Z,1014.65
2023-08-14T02:24:03.676Z,1014.60
2023-08-14T02:25:03.539Z,1014.55
2023-08-14T02:26:03.526Z,1014.51
2023-08-14T02:27:04.374Z,1014.52
2023-08-14T02:28:03.641Z,1014.53
2023-08-14T02:29:03.520Z,1014.57
2023-08-14T02:30:03.494Z,1014.64
2023-08-14T02:31:03.484Z,1014.66
2023-08-14T02:32:03.425Z,1014.65
2023-08-14T02:33:04.342Z,1014.64
2023-08-14T02:34:04.222Z,1014.72
2023-08-14T02:35:03.420Z,1014.75
2023-08-14T02:36:03.481Z,1014.73
2023-08-14T02:37:03.492Z,1014.74
2023-08-14T02:38:04.348Z,1014.68
2023-08-14T02:39:03.365Z,1014.69
2023-08-14T02:40:04.153Z,1014.67
2023-08-14T02:41:03.419Z,1014.69
2023-08-14T02:42:03.705Z,1014.68
2023-08-14T02:43:03.677Z,1014.66
2023-08-14T02:44:03.818Z,1014.69
2023-08-14T02:45:04.182Z,1014.67
2023-08-14T02:46:03.693Z,1014.68
2023-08-14T02:47:03.773Z,1014.70
2023-08-14T02:48:03.326Z,1014.62
2023-08-14T02:49:03.778Z,1014.61
2023-08-14T02:50:03.526Z,1014.64
2023-08-14T02:51:03.277Z,1014.62
2023-08-14T02:52:03.173Z,1014.63
2023-08-14T02:53:03.939Z,1014.63
2023-08-14T02:54:03.157Z,1014.60
2023-08-14T02:55:03.176Z,1014.61
2023-08-14T02:56:03.111Z,1014.59
2023-08-14T02:57:03.125Z,1014.55
2023-08-14T02:58:03.069Z,1014.60
2023-08-14T02:59:03.167Z,1014.55
2023-08-14T03:00:03.156Z,1014.53
2023-08-14T03:01:03.960Z,1014.52
2023-08-14T03:02:03.098Z,1014.53
2023-08-14T03:03:03.129Z,1014.53
2023-08-14T03:04:02.985Z,1014.56
2023-08-14T03:05:03.801Z,1014.55
2023-08-14T03:06:03.016Z,1014.57
2023-08-14T03:07:03.869Z,1014.55
2023-08-14T03:08:03.194Z,1014.49
2023-08-14T03:09:02.955Z,1014.54
2023-08-14T03:10:02.913Z,1014.51
2023-08-14T03:11:03.741Z,1014.56
2023-08-14T03:12:02.893Z,1014.53
2023-08-14T03:13:03.811Z,1014.49
2023-08-14T03:14:02.876Z,1014.48
2023-08-14T03:15:02.857Z,1014.47
2023-08-14T03:16:03.921Z,1014.47
2023-08-14T03:17:02.822Z,1014.47
2023-08-14T03:18:03.595Z,1014.43
2023-08-14T03:19:02.789Z,1014.45
2023-08-14T03:20:02.842Z,1014.47
2023-08-14T03:21:03.541Z,1014.48
2023-08-14T03:22:02.727Z,1014.46
2023-08-14T03:23:02.734Z,1014.53
2023-08-14T03:24:06.061Z,1014.54
2023-08-14T03:25:03.685Z,1014.59
2023-08-14T03:26:03.625Z,1014.63
2023-08-14T03:27:02.657Z,1014.60
2023-08-14T03:28:02.653Z,1014.59
2023-08-14T03:29:02.913Z,1014.49
2023-08-14T03:30:03.004Z,1014.49
2023-08-14T03:31:02.688Z,1014.48
2023-08-14T03:32:02.888Z,1014.54
2023-08-14T03:33:03.475Z,1014.51
2023-08-14T03:34:02.622Z,1014.48
2023-08-14T03:35:03.483Z,1014.49
2023-08-14T03:36:03.383Z,1014.54
2023-08-14T03:37:02.547Z,1014.52
2023-08-14T03:38:02.524Z,1014.46
2023-08-14T03:39:02.535Z,1014.45
2023-08-14T03:40:03.262Z,1014.40
2023-08-14T03:41:03.416Z,1014.40
2023-08-14T03:42:02.442Z,1014.39
2023-08-14T03:43:02.462Z,1014.36
2023-08-14T03:44:03.387Z,1014.37
2023-08-14T03:45:03.287Z,1014.37
2023-08-14T03:46:02.420Z,1014.32
2023-08-14T03:47:02.459Z,1014.34
2023-08-14T03:48:02.422Z,1014.31
2023-08-14T03:49:02.405Z,1014.31
2023-08-14T03:50:02.932Z,1014.30
2023-08-14T03:51:02.335Z,1014.33
2023-08-14T03:52:02.952Z,1014.35
2023-08-14T03:53:02.323Z,1014.28
2023-08-14T03:54:02.329Z,1014.25
2023-08-14T03:55:02.284Z,1014.22
2023-08-14T03:56:02.259Z,1014.21
2023-08-14T03:57:02.288Z,1014.23
2023-08-14T03:58:02.254Z,1014.22
2023-08-14T03:59:02.212Z,1014.22
2023-08-14T04:00:02.200Z,1014.25
2023-08-14T04:01:02.759Z,1014.37
2023-08-14T04:02:02.228Z,1014.37
2023-08-14T04:03:02.539Z,1014.33
2023-08-14T04:04:02.187Z,1014.38
2023-08-14T04:05:02.169Z,1014.43
2023-08-14T04:06:02.166Z,1014.43
2023-08-14T04:07:03.042Z,1014.49
2023-08-14T04:08:02.088Z,1014.45
2023-08-14T04:09:03.036Z,1014.44
2023-08-14T04:10:02.113Z,1014.44
2023-08-14T04:11:02.111Z,1014.45
2023-08-14T04:12:07.111Z,1014.48
2023-08-14T04:13:02.044Z,1014.51
2023-08-14T04:14:02.039Z,1014.50
2023-08-14T04:15:02.969Z,1014.51
2023-08-14T04:16:02.902Z,1014.48
2023-08-14T04:17:01.995Z,1014.44
2023-08-14T04:18:02.041Z,1014.40
2023-08-14T04:19:02.839Z,1014.36
2023-08-14T04:20:02.745Z,1014.43
2023-08-14T04:21:02.653Z,1014.51
2023-08-14T04:22:02.861Z,1014.54
2023-08-14T04:23:02.708Z,1014.56
2023-08-14T04:24:01.918Z,1014.51
2023-08-14T04:25:01.878Z,1014.49
2023-08-14T04:26:02.685Z,1014.42
2023-08-14T04:27:01.828Z,1014.39
2023-08-14T04:28:02.766Z,1014.41
2023-08-14T04:29:02.672Z,1014.44
2023-08-14T04:30:01.815Z,1014.42
2023-08-14T04:31:02.714Z,1014.47
2023-08-14T04:32:01.792Z,1014.48
2023-08-14T04:33:01.733Z,1014.42
2023-08-14T04:34:02.682Z,1014.39
2023-08-14T04:35:02.586Z,1014.41
2023-08-14T04:36:02.485Z,1014.41
2023-08-14T04:37:02.666Z,1014.47
2023-08-14T04:38:02.566Z,1014.46
2023-08-14T04:39:02.471Z,1014.44
2023-08-14T04:40:01.631Z,1014.41
2023-08-14T04:41:02.543Z,1014.39
2023-08-14T04:42:01.594Z,1014.37
2023-08-14T04:43:01.669Z,1014.36
2023-08-14T04:44:02.489Z,1014.32
2023-08-14T04:45:01.584Z,1014.33
2023-08-14T04:46:02.431Z,1014.32
2023-08-14T04:47:01.585Z,1014.31
2023-08-14T04:48:01.718Z,1014.38
2023-08-14T04:49:01.516Z,1014.36
2023-08-14T04:50:01.692Z,1014.40
2023-08-14T04:51:02.335Z,1014.41
2023-08-14T04:52:02.271Z,1014.42
2023-08-14T04:53:03.340Z,1014.44
2023-08-14T04:54:01.514Z,1014.45
2023-08-14T04:55:01.495Z,1014.47
2023-08-14T04:56:01.516Z,1014.39
2023-08-14T04:57:01.425Z,1014.40
2023-08-14T04:58:01.413Z,1014.56
2023-08-14T04:59:01.429Z,1014.68
2023-08-14T05:00:01.447Z,1014.71
2023-08-14T05:01:01.405Z,1014.81
2023-08-14T05:02:01.413Z,1014.84
2023-08-14T05:03:01.431Z,1014.83
2023-08-14T05:04:01.358Z,1014.74
2023-08-14T05:05:02.023Z,1014.69
2023-08-14T05:06:01.278Z,1014.66
2023-08-14T05:07:02.072Z,1014.73
2023-08-14T05:08:02.275Z,1014.73
2023-08-14T05:09:06.736Z,1014.63
2023-08-14T05:10:02.285Z,1014.66
2023-08-14T05:11:01.307Z,1014.64
2023-08-14T05:12:01.256Z,1014.62
2023-08-14T05:13:01.187Z,1014.64
2023-08-14T05:14:01.168Z,1014.58
2023-08-14T05:15:01.283Z,1014.57
2023-08-14T05:16:08.186Z,1014.62
2023-08-14T05:17:02.911Z,1014.73
2023-08-14T05:18:01.257Z,1014.86
2023-08-14T05:19:01.459Z,1014.87
2023-08-14T05:20:01.894Z,1014.92
2023-08-14T05:21:01.086Z,1014.88
2023-08-14T05:22:01.668Z,1014.91
2023-08-14T05:23:01.128Z,1015.02
2023-08-14T05:24:01.992Z,1015.06
2023-08-14T05:25:01.043Z,1015.10
2023-08-14T05:26:01.785Z,1015.10
2023-08-14T05:27:00.979Z,1015.10
2023-08-14T05:28:01.900Z,1015.16
2023-08-14T05:29:01.770Z,1015.14
2023-08-14T05:30:00.914Z,1015.17
2023-08-14T05:31:01.863Z,1015.08
2023-08-14T05:32:01.720Z,1015.06
2023-08-14T05:33:01.922Z,1015.06
2023-08-14T05:34:01.794Z,1015.11
2023-08-14T05:35:00.868Z,1015.06
2023-08-14T05:36:01.593Z,1015.07
2023-08-14T05:37:00.884Z,1015.07
2023-08-14T05:38:00.932Z,1014.99
2023-08-14T05:39:00.804Z,1014.96
2023-08-14T05:40:00.796Z,1014.99
2023-08-14T05:41:01.624Z,1014.96
2023-08-14T05:42:01.533Z,1015.01
2023-08-14T05:43:01.685Z,1015.01
2023-08-14T05:44:01.622Z,1015.04
2023-08-14T05:45:00.738Z,1014.98
2023-08-14T05:46:01.769Z,1015.01
2023-08-14T05:47:00.739Z,1015.10
2023-08-14T05:48:00.736Z,1015.17
2023-08-14T05:49:01.624Z,1015.21
2023-08-14T05:50:01.772Z,1015.33
2023-08-14T05:51:00.724Z,1015.41
2023-08-14T05:52:01.592Z,1015.47
2023-08-14T05:53:01.495Z,1015.54
2023-08-14T05:54:00.624Z,1015.57
2023-08-14T05:55:00.936Z,1015.49
2023-08-14T05:56:00.556Z,1015.45
2023-08-14T05:57:01.366Z,1015.37
2023-08-14T05:58:00.622Z,1015.37
2023-08-14T05:59:00.793Z,1015.20
2023-08-14T06:00:00.819Z,1015.11
2023-08-14T06:01:01.297Z,1015.08
2023-08-14T06:02:02.587Z,1014.99
2023-08-14T06:03:01.418Z,1014.99
2023-08-14T06:04:00.828Z,1015.05
2023-08-14T06:05:00.481Z,1014.89
2023-08-14T06:06:00.742Z,1014.75
2023-08-14T06:07:01.885Z,1014.69
2023-08-14T06:08:00.473Z,1014.66
2023-08-14T06:09:01.414Z,1014.63
2023-08-14T06:10:00.836Z,1014.58
2023-08-14T06:11:01.302Z,1014.54
2023-08-14T06:12:00.458Z,1014.52
2023-08-14T06:13:00.347Z,1014.52
2023-08-14T06:14:00.785Z,1014.45
2023-08-14T06:15:00.355Z,1014.39
2023-08-14T06:16:00.334Z,1014.43
2023-08-14T06:17:00.816Z,1014.41
2023-08-14T06:18:01.254Z,1014.39
2023-08-14T06:19:01.061Z,1014.31
2023-08-14T06:20:01.207Z,1014.28
2023-08-14T06:21:00.259Z,1014.37
2023-08-14T06:22:00.211Z,1014.29
2023-08-14T06:23:00.190Z,1014.35
2023-08-14T06:24:00.262Z,1014.36
2023-08-14T06:25:00.153Z,1014.31
2023-08-14T06:26:00.721Z,1014.25
2023-08-14T06:27:00.209Z,1014.23
2023-08-14T06:28:00.260Z,1014.25
2023-08-14T06:29:00.086Z,1014.30
2023-08-14T06:30:01.025Z,1014.32
2023-08-14T06:31:00.150Z,1014.29
2023-08-14T06:32:00.323Z,1014.21
2023-08-14T06:33:00.076Z,1014.22
2023-08-14T06:33:59.997Z,1014.28
2023-08-14T06:35:00.193Z,1014.28
2023-08-14T06:36:00.011Z,1014.30
2023-08-14T06:36:59.991Z,1014.31
2023-08-14T06:38:00.057Z,1014.28
2023-08-14T06:38:59.989Z,1014.28
2023-08-14T06:39:59.959Z,1014.32
2023-08-14T06:40:59.976Z,1014.36
2023-08-14T06:41:59.955Z,1014.34
2023-08-14T06:43:00.059Z,1014.32
2023-08-14T06:44:00.132Z,1014.32
2023-08-14T06:45:00.323Z,1014.33
2023-08-14T06:46:00.141Z,1014.33
2023-08-14T06:47:00.067Z,1014.27
2023-08-14T06:47:59.970Z,1014.17
2023-08-14T06:49:01.434Z,1014.15
2023-08-14T06:50:01.653Z,1014.17
2023-08-14T06:51:00.852Z,1014.16
2023-08-14T06:51:59.769Z,1014.21
2023-08-14T06:53:00.607Z,1014.14
2023-08-14T06:54:00.570Z,1014.04
2023-08-14T06:55:00.678Z,1014.00
2023-08-14T06:56:00.565Z,1014.02
2023-08-14T06:57:00.472Z,1014.06
2023-08-14T06:58:00.633Z,1014.06
2023-08-14T06:58:59.725Z,1014.08
2023-08-14T07:00:00.450Z,1014.01
2023-08-14T07:01:00.689Z,1014.02
2023-08-14T07:02:00.515Z,1014.04
2023-08-14T07:03:00.623Z,1014.00
2023-08-14T07:04:00.130Z,1013.94
2023-08-14T07:04:59.628Z,1013.96
2023-08-14T07:06:00.376Z,1013.94
2023-08-14T07:06:59.578Z,1013.97
2023-08-14T07:08:00.002Z,1014.01
2023-08-14T07:09:00.389Z,1014.01
2023-08-14T07:10:00.547Z,1014.09
2023-08-14T07:11:03.238Z,1014.14
2023-08-14T07:12:00.185Z,1014.10
2023-08-14T07:13:03.286Z,1014.04
2023-08-14T07:14:02.481Z,1014.07
2023-08-14T07:15:00.185Z,1014.05
2023-08-14T07:16:06.923Z,1014.04
2023-08-14T07:17:00.165Z,1014.03
2023-08-14T07:18:04.259Z,1014.02
2023-08-14T07:19:06.401Z,1014.02
2023-08-14T07:19:59.459Z,1014.10
2023-08-14T07:21:06.587Z,1014.04
2023-08-14T07:22:00.144Z,1014.02
2023-08-14T07:22:59.984Z,1013.98
2023-08-14T07:23:59.338Z,1014.11
2023-08-14T07:25:00.107Z,1013.97
2023-08-14T07:25:59.301Z,1014.08
2023-08-14T07:26:59.302Z,1014.05
2023-08-14T07:28:00.074Z,1014.00
2023-08-14T07:28:59.262Z,1013.96
2023-08-14T07:29:59.259Z,1013.92
2023-08-14T07:31:00.104Z,1013.86
2023-08-14T07:32:00.183Z,1013.82
2023-08-14T07:33:00.151Z,1013.82
2023-08-14T07:33:59.998Z,1013.87
2023-08-14T07:35:00.226Z,1013.82
2023-08-14T07:35:59.181Z,1013.83
2023-08-14T07:36:59.961Z,1013.82
2023-08-14T07:38:00.128Z,1013.84
2023-08-14T07:38:59.126Z,1013.79
2023-08-14T07:39:59.648Z,1013.76
2023-08-14T07:41:00.098Z,1013.79
2023-08-14T07:41:59.988Z,1013.82
2023-08-14T07:42:59.910Z,1013.82
2023-08-14T07:43:59.088Z,1013.80
2023-08-14T07:44:59.032Z,1013.82
2023-08-14T07:45:59.881Z,1013.85
2023-08-14T07:46:59.790Z,1013.86
2023-08-14T07:47:59.081Z,1013.83
2023-08-14T07:48:58.997Z,1013.88
2023-08-14T07:49:59.781Z,1013.79
2023-08-14T07:50:59.902Z,1013.84
2023-08-14T07:51:58.944Z,1013.82
2023-08-14T07:52:59.005Z,1013.80
2023-08-14T07:53:58.954Z,1013.79
2023-08-14T07:54:58.911Z,1013.74
2023-08-14T07:55:58.869Z,1013.76
2023-08-14T07:56:59.830Z,1013.73
2023-08-14T07:57:59.730Z,1013.72
2023-08-14T07:58:59.646Z,1013.71
2023-08-14T07:59:59.803Z,1013.66
2023-08-14T08:00:59.702Z,1013.63
2023-08-14T08:01:58.828Z,1013.59
2023-08-14T08:02:59.819Z,1013.61
2023-08-14T08:03:58.794Z,1013.61
2023-08-14T08:04:59.606Z,1013.66
2023-08-14T08:05:59.766Z,1013.62
2023-08-14T08:06:59.690Z,1013.69
2023-08-14T08:07:58.738Z,1013.64
2023-08-14T08:08:58.705Z,1013.62
2023-08-14T08:09:59.649Z,1013.67
2023-08-14T08:10:59.533Z,1013.65
2023-08-14T08:11:58.691Z,1013.66
2023-08-14T08:12:59.572Z,1013.64
2023-08-14T08:13:58.921Z,1013.64
2023-08-14T08:14:59.385Z,1013.66
2023-08-14T08:15:59.581Z,1013.67
2023-08-14T08:16:59.456Z,1013.67
2023-08-14T08:17:59.374Z,1013.68
2023-08-14T08:18:59.518Z,1013.66
2023-08-14T08:19:59.463Z,1013.64
2023-08-14T08:20:58.595Z,1013.65
2023-08-14T08:21:58.571Z,1013.67
2023-08-14T08:22:59.414Z,1013.66
2023-08-14T08:23:58.543Z,1013.66
2023-08-14T08:24:58.571Z,1013.65
2023-08-14T08:25:59.350Z,1013.66
2023-08-14T08:26:59.256Z,1013.72
2023-08-14T08:27:58.479Z,1013.71
2023-08-14T08:28:59.327Z,1013.72
2023-08-14T08:29:58.451Z,1013.72
2023-08-14T08:30:59.387Z,1013.76
2023-08-14T08:31:59.280Z,1013.80
2023-08-14T08:33:59.364Z,1013.71
2023-08-14T08:34:58.391Z,1013.71
2023-08-14T08:35:59.164Z,1013.72
2023-08-14T08:36:59.316Z,1013.73
2023-08-14T08:37:59.276Z,1013.72
2023-08-14T08:38:58.727Z,1013.66
2023-08-14T08:39:58.296Z,1013.62
2023-08-14T08:40:58.290Z,1013.63
2023-08-14T08:41:59.094Z,1013.61
2023-08-14T08:42:58.301Z,1013.67
2023-08-14T08:43:59.160Z,1013.68
2023-08-14T08:44:59.060Z,1013.68
2023-08-14T08:45:59.260Z,1013.67
2023-08-14T08:46:59.129Z,1013.70
2023-08-14T08:47:59.055Z,1013.69
2023-08-14T08:48:58.956Z,1013.60
2023-08-14T08:49:58.179Z,1013.59
2023-08-14T08:50:58.136Z,1013.61
2023-08-14T08:51:58.157Z,1013.62
2023-08-14T08:52:59.083Z,1013.62
2023-08-14T08:53:59.012Z,1013.63
2023-08-14T08:54:58.119Z,1013.62
2023-08-14T08:55:58.107Z,1013.61
2023-08-14T08:56:58.936Z,1013.55
2023-08-14T08:57:58.837Z,1013.54
2023-08-14T08:58:58.998Z,1013.52
2023-08-14T08:59:58.674Z,1013.50
2023-08-14T09:00:58.007Z,1013.50
2023-08-14T09:01:58.968Z,1013.48
2023-08-14T09:02:58.163Z,1013.49
2023-08-14T09:03:58.875Z,1013.51
2023-08-14T09:04:58.998Z,1013.53
2023-08-14T09:05:58.839Z,1013.53
2023-08-14T09:06:58.743Z,1013.51
2023-08-14T09:07:58.962Z,1013.53
2023-08-14T09:08:58.810Z,1013.50
2023-08-14T09:09:58.749Z,1013.50
2023-08-14T09:10:58.871Z,1013.45
2023-08-14T09:11:57.869Z,1013.45
2023-08-14T09:12:58.687Z,1013.49
2023-08-14T09:13:58.841Z,1013.48
2023-08-14T09:14:58.744Z,1013.50
2023-08-14T09:15:58.670Z,1013.51
2023-08-14T09:16:57.813Z,1013.47
2023-08-14T09:17:58.740Z,1013.49
2023-08-14T09:18:58.625Z,1013.47
2023-08-14T09:19:59.327Z,1013.43
2023-08-14T09:20:58.677Z,1013.46
2023-08-14T09:21:58.583Z,1013.52
2023-08-14T09:22:57.806Z,1013.55
2023-08-14T09:23:57.710Z,1013.55
2023-08-14T09:24:57.715Z,1013.55
2023-08-14T09:25:59.775Z,1013.58
2023-08-14T09:26:57.758Z,1013.60
2023-08-14T09:27:58.522Z,1013.54
2023-08-14T09:28:57.805Z,1013.55
2023-08-14T09:29:58.658Z,1013.53
2023-08-14T09:30:57.644Z,1013.49
2023-08-14T09:31:57.647Z,1013.52
2023-08-14T09:32:57.774Z,1013.52
2023-08-14T09:33:58.604Z,1013.48
2023-08-14T09:34:57.572Z,1013.49
2023-08-14T09:35:57.573Z,1013.49
2023-08-14T09:36:58.451Z,1013.44
2023-08-14T09:37:58.327Z,1013.48
2023-08-14T09:38:58.543Z,1013.49
2023-08-14T09:39:57.761Z,1013.45
2023-08-14T09:40:57.711Z,1013.44
2023-08-14T09:41:57.826Z,1013.46
2023-08-14T09:42:57.765Z,1013.42
2023-08-14T09:43:58.264Z,1013.39
2023-08-14T09:44:58.481Z,1013.38
2023-08-14T09:45:58.033Z,1013.43
2023-08-14T09:46:57.965Z,1013.47
2023-08-14T09:47:57.529Z,1013.53
2023-08-14T09:48:58.254Z,1013.54
2023-08-14T09:49:58.202Z,1013.52
2023-08-14T09:50:57.402Z,1013.55
2023-08-14T09:51:58.302Z,1013.53
2023-08-14T09:52:58.172Z,1013.51
2023-08-14T09:53:57.360Z,1013.55
2023-08-14T09:55:03.058Z,1013.53
2023-08-14T09:55:59.169Z,1013.45
2023-08-14T09:56:57.364Z,1013.46
2023-08-14T09:57:57.294Z,1013.43
2023-08-14T09:58:57.338Z,1013.37
2023-08-14T09:59:58.011Z,1013.37
2023-08-14T10:00:57.369Z,1013.38
2023-08-14T10:01:57.283Z,1013.35
2023-08-14T10:02:59.259Z,1013.34
2023-08-14T10:03:58.136Z,1013.29
2023-08-14T10:04:57.200Z,1013.31
2023-08-14T10:05:57.948Z,1013.26
2023-08-14T10:06:58.102Z,1013.27
2023-08-14T10:07:58.017Z,1013.25
2023-08-14T10:08:59.140Z,1013.22
2023-08-14T10:09:57.120Z,1013.21
2023-08-14T10:11:18.361Z,1013.18
2023-08-14T10:11:58.053Z,1013.16
2023-08-14T10:12:57.076Z,1013.17
2023-08-14T10:13:57.074Z,1013.11
2023-08-14T10:14:57.062Z,1013.11
2023-08-14T10:15:57.058Z,1013.18
2023-08-14T10:16:57.365Z,1013.18
2023-08-14T10:17:57.098Z,1013.12
2023-08-14T10:18:56.968Z,1013.16
2023-08-14T10:19:57.280Z,1013.10
2023-08-14T10:20:57.287Z,1013.01
2023-08-14T10:21:56.966Z,1013.07
2023-08-14T10:22:56.906Z,1013.05
2023-08-14T10:23:56.933Z,1013.07
2023-08-14T10:24:56.929Z,1013.05
2023-08-14T10:25:56.898Z,1013.05
2023-08-14T10:26:56.863Z,1013.03
2023-08-14T10:27:56.845Z,1013.02
2023-08-14T10:28:56.825Z,1012.94
2023-08-14T10:29:56.867Z,1012.95
2023-08-14T10:30:56.947Z,1012.94
2023-08-14T10:31:56.822Z,1012.92
2023-08-14T10:32:56.826Z,1012.94
2023-08-14T10:33:56.840Z,1012.96
2023-08-14T10:34:56.779Z,1013.01
2023-08-14T10:35:56.773Z,1013.05
2023-08-14T10:36:56.736Z,1013.06
2023-08-14T10:38:09.787Z,1013.02
2023-08-14T10:39:03.530Z,1013.03
2023-08-14T10:39:57.762Z,1013.12
2023-08-14T10:40:58.642Z,1013.16
2023-08-14T10:41:57.562Z,1013.11
2023-08-14T10:42:57.463Z,1013.14
2023-08-14T10:43:57.727Z,1013.14
2023-08-14T10:44:57.528Z,1013.16
2023-08-14T10:45:56.674Z,1013.09
2023-08-14T10:46:57.623Z,1013.11
2023-08-14T10:47:56.611Z,1013.07
2023-08-14T10:48:56.580Z,1013.11
2023-08-14T10:49:57.560Z,1013.15
2023-08-14T10:50:57.464Z,1013.12
2023-08-14T10:51:56.545Z,1013.06
2023-08-14T10:52:57.269Z,1013.09
2023-08-14T10:53:56.528Z,1013.01
2023-08-14T10:54:57.341Z,1012.99
2023-08-14T10:55:56.520Z,1012.99
2023-08-14T10:56:56.748Z,1012.98
2023-08-14T10:57:56.473Z,1012.97
2023-08-14T10:58:56.498Z,1012.97
2023-08-14T10:59:57.424Z,1012.93
2023-08-14T11:00:57.278Z,1012.89
2023-08-14T11:01:56.463Z,1012.90
2023-08-14T11:02:57.302Z,1012.94
2023-08-14T11:03:56.448Z,1012.92
2023-08-14T11:04:57.184Z,1012.98
2023-08-14T11:05:57.397Z,1012.95
2023-08-14T11:06:56.398Z,1012.93
2023-08-14T11:07:56.363Z,1012.98
2023-08-14T11:08:57.278Z,1013.00
2023-08-14T11:09:56.335Z,1012.98
2023-08-14T11:10:57.090Z,1012.97
2023-08-14T11:11:57.236Z,1012.95
2023-08-14T11:12:57.146Z,1012.99
2023-08-14T11:13:57.049Z,1012.92
2023-08-14T11:14:56.256Z,1012.99
2023-08-14T11:15:57.191Z,1012.85
2023-08-14T11:16:56.202Z,1012.88
2023-08-14T11:17:57.216Z,1012.98
2023-08-14T11:18:59.183Z,1012.84
2023-08-14T11:19:56.994Z,1012.87
2023-08-14T11:20:56.191Z,1012.78
2023-08-14T11:21:56.181Z,1012.77
2023-08-14T11:22:56.285Z,1012.96
2023-08-14T11:23:57.115Z,1012.85
2023-08-14T11:24:57.044Z,1012.84
2023-08-14T11:25:56.921Z,1012.80
2023-08-14T11:26:57.082Z,1012.85
2023-08-14T11:27:56.989Z,1012.85
2023-08-14T11:28:56.074Z,1012.75
2023-08-14T11:30:00.149Z,1012.79
2023-08-14T11:30:57.975Z,1012.79
2023-08-14T11:31:56.919Z,1012.79
2023-08-14T11:32:57.077Z,1012.79
2023-08-14T11:33:56.116Z,1012.77
2023-08-14T11:34:56.828Z,1012.89
2023-08-14T11:36:03.983Z,1012.85
2023-08-14T11:37:07.173Z,1012.93
2023-08-14T11:37:56.947Z,1012.93
2023-08-14T11:38:56.957Z,1012.85
2023-08-14T11:39:56.854Z,1012.99
2023-08-14T11:40:55.995Z,1012.98
2023-08-14T11:41:56.661Z,1012.92
2023-08-14T11:42:58.510Z,1013.03
2023-08-14T11:43:56.734Z,1013.01
2023-08-14T11:44:56.633Z,1012.97
2023-08-14T11:45:55.881Z,1012.90
2023-08-14T11:46:55.907Z,1013.01
2023-08-14T11:47:56.748Z,1012.92
2023-08-14T11:48:55.824Z,1012.95
2023-08-14T11:49:56.673Z,1012.84
2023-08-14T11:50:55.810Z,1012.78
2023-08-14T11:51:55.815Z,1012.75
2023-08-14T11:52:56.629Z,1012.85
2023-08-14T11:53:56.548Z,1012.79
2023-08-14T11:54:56.703Z,1012.70
2023-08-14T11:55:56.600Z,1012.65
2023-08-14T11:56:56.516Z,1012.79
2023-08-14T11:57:56.663Z,1012.70
2023-08-14T11:59:06.536Z,1012.68
2023-08-14T11:59:56.792Z,1012.64
2023-08-14T12:00:56.661Z,1012.65
2023-08-14T12:01:55.649Z,1012.57
2023-08-14T12:02:56.477Z,1012.58
2023-08-14T12:03:55.667Z,1012.62
2023-08-14T12:04:56.505Z,1012.69
2023-08-14T12:05:56.416Z,1012.58